Terminal Aerodrome Forecast
Issued by NWS

Home | Current Version | Previous Version | Text Only | Print | Product List | Glossary On
Versions: 1 2 3 4 5 6 7 8 9 10 11 12 13 14 15 16
382
FTUS46 KEKA 140520
TAFUKI
TAF
KUKI 140520Z 1406/1506 VRB03KT P6SM SCT100 BKN200
     FM142000 32008G16KT P6SM SCT150
     FM150200 35007KT P6SM SCT250=

USA.gov is the U.S. government's official web portal to all federal, state and local government web resources and services.